Terminal Aerodrome Forecast
Issued by NWS

Home | Current Version | Previous Version | Text Only | Print | Product List | Glossary On
Versions: 1 2 3 4 5 6 7 8 9 10 11 12 13 14 15
000
FTUS42 KMLB 220500
TAFISM
TAF
KISM 220540Z 2206/2306 00000KT P6SM BKN050 BKN250
     FM221500 11005KT P6SM SCT025 BKN250
     FM221800 13006KT P6SM SCT035 SCT100 BKN250 PROB30 2219/2222 2SM
      TSRA BKN025CB
     FM230200 16002KT P6SM SCT050 BKN150
      AMD NOT SKED TIL 221100=

USA.gov is the U.S. government's official web portal to all federal, state and local government web resources and services.